RYR6FC LIBD-EBCI
Flight info
| Callsign | RYR6FC |
|---|---|
| Flight time | N/A |
| Altitude | 18000 |
| Route | PISIP L612 VIE/N0440F380 DCT VAPUP DCT PUL DCT NAKIT DCT PEVAL DCT MOBDO DCT SOTOV DCT KPT L608 TEDGO DCT IDOVI Z104 ODVUX/N0379F280 Z104 GESLO N852 LNO |
| Aircraft | B38M/M-SDE1FGHILORVWXY/HB1 |
Departure
| Time | N/A |
|---|---|
| Airport | Bari Karol Wojtyła International Airport (LIBD) |
Arrival
| Time | 2026-05-04 12:54 |
|---|---|
| Airport | Brussels South Charleroi Airport (EBCI) |
| Time | Latitude | Longitude | Altitude | Speed | Heading |
|---|---|---|---|---|---|
| 2026-05-04 12:46 | 50.44490 | 4.64249 | 2989 ft | 252 kts | 103° |
| 2026-05-04 12:47 | 50.44122 | 4.66934 | 2992 ft | 251 kts | 103° |
| 2026-05-04 12:47 | 50.44040 | 4.69654 | 2966 ft | 253 kts | 78° |
| 2026-05-04 12:47 | 50.44684 | 4.72215 | 2990 ft | 249 kts | 66° |
| 2026-05-04 12:47 | 50.45373 | 4.74632 | 2986 ft | 235 kts | 67° |
| 2026-05-04 12:48 | 50.46014 | 4.76884 | 2992 ft | 218 kts | 67° |
| 2026-05-04 12:48 | 50.46891 | 4.78741 | 2948 ft | 214 kts | 37° |
| 2026-05-04 12:48 | 50.48263 | 4.79539 | 3009 ft | 214 kts | 3° |
| 2026-05-04 12:48 | 50.49755 | 4.79459 | 3053 ft | 216 kts | 356° |
| 2026-05-04 12:49 | 50.51201 | 4.78906 | 2972 ft | 213 kts | 335° |
| 2026-05-04 12:49 | 50.52541 | 4.77894 | 2996 ft | 214 kts | 328° |
| 2026-05-04 12:49 | 50.53567 | 4.76287 | 2961 ft | 209 kts | 296° |
| 2026-05-04 12:49 | 50.53899 | 4.74112 | 2953 ft | 206 kts | 267° |
| 2026-05-04 12:50 | 50.53651 | 4.71904 | 3010 ft | 206 kts | 250° |
| 2026-05-04 12:50 | 50.53118 | 4.69822 | 3020 ft | 206 kts | 244° |
| 2026-05-04 12:50 | 50.52514 | 4.67783 | 3027 ft | 204 kts | 243° |
| 2026-05-04 12:50 | 50.51941 | 4.65826 | 2997 ft | 190 kts | 244° |
| 2026-05-04 12:51 | 50.51399 | 4.63958 | 2906 ft | 186 kts | 244° |
| 2026-05-04 12:51 | 50.50867 | 4.62121 | 2672 ft | 183 kts | 245° |
| 2026-05-04 12:51 | 50.50353 | 4.60344 | 2449 ft | 173 kts | 244° |
| 2026-05-04 12:51 | 50.49880 | 4.58711 | 2234 ft | 161 kts | 245° |
| 2026-05-04 12:52 | 50.49413 | 4.57102 | 2018 ft | 157 kts | 245° |
| 2026-05-04 12:52 | 50.48981 | 4.55609 | 1839 ft | 146 kts | 244° |
| 2026-05-04 12:52 | 50.48563 | 4.54166 | 1672 ft | 145 kts | 245° |
| 2026-05-04 12:52 | 50.48148 | 4.52734 | 1439 ft | 144 kts | 244° |
| 2026-05-04 12:53 | 50.47740 | 4.51306 | 1236 ft | 144 kts | 243° |
| 2026-05-04 12:53 | 50.47325 | 4.49891 | 1038 ft | 140 kts | 243° |
| 2026-05-04 12:53 | 50.46915 | 4.48495 | 838 ft | 146 kts | 244° |
| 2026-05-04 12:53 | 50.46502 | 4.47051 | 657 ft | 138 kts | 243° |
| 2026-05-04 12:54 | 50.46153 | 4.45863 | 624 ft | 87 kts | 245° |
| 2026-05-04 12:54 | 50.45956 | 4.45186 | 627 ft | 56 kts | 245° |
| 2026-05-04 12:54 | 50.45894 | 4.44824 | 634 ft | 18 kts | 297° |
| 2026-05-04 12:54 | 50.45939 | 4.44782 | 633 ft | 1 kts | 340° |
| 2026-05-04 12:55 | 50.45961 | 4.44771 | 632 ft | 5 kts | 348° |
| 2026-05-04 12:55 | 50.46005 | 4.44774 | 630 ft | 8 kts | 18° |
| 2026-05-04 12:55 | 50.46028 | 4.44809 | 633 ft | 5 kts | 61° |
| 2026-05-04 12:55 | 50.46051 | 4.44885 | 634 ft | 10 kts | 65° |
| 2026-05-04 12:56 | 50.46086 | 4.45003 | 634 ft | 14 kts | 65° |
| 2026-05-04 12:56 | 50.46129 | 4.45156 | 628 ft | 17 kts | 66° |
| 2026-05-04 12:56 | 50.46183 | 4.45344 | 634 ft | 21 kts | 66° |
| 2026-05-04 12:56 | 50.46246 | 4.45564 | 627 ft | 24 kts | 65° |
| 2026-05-04 12:57 | 50.46318 | 4.45808 | 627 ft | 21 kts | 65° |
| 2026-05-04 12:57 | 50.46380 | 4.46025 | 627 ft | 23 kts | 65° |
| 2026-05-04 12:57 | 50.46442 | 4.46236 | 628 ft | 16 kts | 65° |
| 2026-05-04 12:57 | 50.46492 | 4.46411 | 624 ft | 19 kts | 65° |
| 2026-05-04 12:58 | 50.46544 | 4.46586 | 628 ft | 16 kts | 66° |
| 2026-05-04 12:58 | 50.46562 | 4.46651 | 624 ft | 0 kts | 66° |
| 2026-05-04 12:59 | 50.46570 | 4.46678 | 618 ft | 7 kts | 65° |
| 2026-05-04 12:59 | 50.46582 | 4.46719 | 620 ft | 0 kts | 65° |
| 2026-05-04 13:06 | 50.46583 | 4.46720 | 616 ft | 1 kts | 65° |
| 2026-05-04 13:06 | 50.46612 | 4.46798 | 622 ft | 12 kts | 38° |
| 2026-05-04 13:06 | 50.46684 | 4.46780 | 617 ft | 11 kts | 358° |
| 2026-05-04 13:06 | 50.46728 | 4.46822 | 619 ft | 7 kts | 52° |
| 2026-05-04 13:07 | 50.46751 | 4.46903 | 620 ft | 9 kts | 66° |
| 2026-05-04 13:07 | 50.46782 | 4.47005 | 620 ft | 8 kts | 64° |
| 2026-05-04 13:07 | 50.46805 | 4.47075 | 618 ft | 4 kts | 46° |
| 2026-05-04 13:07 | 50.46813 | 4.47077 | 616 ft | 1 kts | 350° |
| 2026-05-04 13:08 | 50.46831 | 4.47061 | 613 ft | 6 kts | 332° |
| 2026-05-04 13:08 | 50.46851 | 4.47046 | 616 ft | 0 kts | 335° |